Hudson Bay, Canada
Current Conditions -  °F | °C
As of 8:00 PM on Monday 20 Oct 2014 (Local Time) from CYBU Reporting Station
Clear Clear  
Wind Chill: 55°   Ceiling: Unl
Heat Index: 55°   Visibility: 9mi
Dew Point: 41°   Wind: 13mph
Humidity: 58%   Direction: 140°SE
Pressure: 29.66"   Gusts: NA
Location:  52.86°N, 102.39°W
Report Text: CYBU 210200Z AUTO 14011KT 9SM CLR 13/05 A2966 RMK SLP055 DENSITY ALT 1500FT
Loading
Personal Weather Stations






























Interactive Weather Map
Tropical Storm Tracking
New forecast layout! Learn more

10-Day Weather Forecast

Advertisements
Track Severe Weather on mobile